createdAt,value
2022-12-09T00:01:08.095Z,12.60
2022-12-09T00:03:36.882Z,14.35
2022-12-09T00:06:09.429Z,14.70
2022-12-09T00:08:37.744Z,11.82
2022-12-09T00:11:06.684Z,12.10
2022-12-09T00:13:36.070Z,14.70
2022-12-09T00:16:07.346Z,13.13
2022-12-09T00:18:35.368Z,15.48
2022-12-09T00:21:12.884Z,14.68
2022-12-09T00:23:40.847Z,11.95
2022-12-09T00:26:08.898Z,12.05
2022-12-09T00:28:38.157Z,13.00
2022-12-09T00:31:07.025Z,15.27
2022-12-09T00:33:36.133Z,14.05
2022-12-09T00:36:08.311Z,12.95
2022-12-09T00:38:36.264Z,13.30
2022-12-09T00:41:04.472Z,12.80
2022-12-09T00:43:32.241Z,13.70
2022-12-09T00:46:02.081Z,13.88
2022-12-09T00:48:30.959Z,13.10
2022-12-09T00:50:58.898Z,12.10
2022-12-09T00:53:26.907Z,15.82
2022-12-09T00:55:54.649Z,16.42
2022-12-09T00:58:22.392Z,13.52
2022-12-09T01:00:50.913Z,13.68
2022-12-09T01:03:20.907Z,12.45
2022-12-09T01:05:49.352Z,11.45
2022-12-09T01:08:17.547Z,13.65
2022-12-09T01:10:47.053Z,13.18
2022-12-09T01:13:16.519Z,15.40
2022-12-09T01:15:44.558Z,12.85
2022-12-09T01:18:13.544Z,15.60
2022-12-09T01:20:42.811Z,14.23
2022-12-09T01:23:10.534Z,12.88
2022-12-09T01:25:38.968Z,12.02
2022-12-09T01:28:06.766Z,12.00
2022-12-09T01:30:34.490Z,12.75
2022-12-09T01:33:02.228Z,11.23
2022-12-09T01:35:30.102Z,13.02
2022-12-09T01:37:59.309Z,13.23
2022-12-09T01:40:27.076Z,11.93
2022-12-09T01:42:54.831Z,15.30
2022-12-09T01:45:44.173Z,13.32
2022-12-09T01:48:14.685Z,12.68
2022-12-09T01:50:47.439Z,12.73
2022-12-09T01:53:19.599Z,16.67
2022-12-09T01:55:47.458Z,12.10
2022-12-09T01:58:16.667Z,12.50
2022-12-09T02:00:45.738Z,11.07
2022-12-09T02:03:13.849Z,13.50
2022-12-09T02:05:41.805Z,12.57
2022-12-09T02:08:13.121Z,13.00
2022-12-09T02:10:53.007Z,12.23
2022-12-09T02:13:26.873Z,13.90
2022-12-09T02:15:56.124Z,12.52
2022-12-09T02:18:30.869Z,13.25
2022-12-09T02:21:02.864Z,15.70
2022-12-09T02:23:38.741Z,14.85
2022-12-09T02:26:17.574Z,15.10
2022-12-09T02:29:05.039Z,14.43
2022-12-09T02:34:15.994Z,15.20
2022-12-09T02:36:53.332Z,15.40
2022-12-09T02:39:25.019Z,13.65
2022-12-09T02:41:54.878Z,15.15
2022-12-09T02:44:25.235Z,14.23
2022-12-09T02:46:54.574Z,17.25
2022-12-09T02:49:26.208Z,21.55
2022-12-09T02:51:55.391Z,21.40
2022-12-09T02:54:24.718Z,17.17
2022-12-09T02:56:57.071Z,16.13
2022-12-09T02:59:25.123Z,14.55
2022-12-09T03:02:01.894Z,19.92
2022-12-09T03:04:33.024Z,18.55
2022-12-09T03:07:13.206Z,19.05
2022-12-09T03:09:46.456Z,17.40
2022-12-09T03:12:18.832Z,19.60
2022-12-09T03:14:50.785Z,24.02
2022-12-09T03:17:22.908Z,21.38
2022-12-09T03:19:56.155Z,20.33
2022-12-09T03:22:28.771Z,21.02
2022-12-09T03:25:00.725Z,22.25
2022-12-09T03:27:35.473Z,22.50
2022-12-09T03:30:07.556Z,22.92
2022-12-09T03:32:38.698Z,23.05
2022-12-09T03:35:14.465Z,22.73
2022-12-09T03:37:45.199Z,23.10
2022-12-09T03:40:17.979Z,22.70
2022-12-09T03:42:52.022Z,26.40
2022-12-09T03:45:23.630Z,25.90
2022-12-09T03:47:52.260Z,26.77
2022-12-09T03:50:23.363Z,21.48
2022-12-09T03:52:54.769Z,28.25
2022-12-09T03:55:34.935Z,22.33
2022-12-09T03:58:07.175Z,26.75
2022-12-09T04:00:37.605Z,25.17
2022-12-09T04:03:05.773Z,25.30
2022-12-09T04:05:35.927Z,31.67
2022-12-09T04:08:03.705Z,26.75
2022-12-09T04:10:31.397Z,25.00
2022-12-09T04:12:59.088Z,28.23
2022-12-09T04:15:26.925Z,31.50
2022-12-09T04:17:54.886Z,27.25
2022-12-09T04:20:22.719Z,31.15
2022-12-09T04:22:52.254Z,25.92
2022-12-09T04:25:19.929Z,30.83
2022-12-09T04:27:47.964Z,29.33
2022-12-09T04:30:15.950Z,33.58
2022-12-09T04:32:44.120Z,31.90
2022-12-09T04:35:12.028Z,33.88
2022-12-09T04:37:39.681Z,32.08
2022-12-09T04:40:10.284Z,31.70
2022-12-09T04:42:38.451Z,31.52
2022-12-09T04:45:07.724Z,30.75
2022-12-09T04:47:35.591Z,29.90
2022-12-09T04:50:05.079Z,33.13
2022-12-09T04:52:33.778Z,33.35
2022-12-09T04:55:01.460Z,33.17
2022-12-09T04:57:30.872Z,32.53
2022-12-09T04:59:58.628Z,36.83
2022-12-09T05:02:26.796Z,32.60
2022-12-09T05:04:54.935Z,33.58
2022-12-09T05:07:23.420Z,32.72
2022-12-09T05:09:51.731Z,33.20
2022-12-09T05:12:19.464Z,36.53
2022-12-09T05:14:48.507Z,32.05
2022-12-09T05:17:16.586Z,34.17
2022-12-09T05:19:44.814Z,35.50
2022-12-09T05:22:12.871Z,32.92
2022-12-09T05:24:41.144Z,31.55
2022-12-09T05:27:09.275Z,32.83
2022-12-09T05:29:37.017Z,30.08
2022-12-09T05:32:06.444Z,33.75
2022-12-09T05:34:34.577Z,33.28
2022-12-09T05:37:02.418Z,31.38
2022-12-09T05:39:30.403Z,32.42
2022-12-09T05:41:58.266Z,36.92
2022-12-09T05:44:26.250Z,33.38
2022-12-09T05:46:54.249Z,36.28
2022-12-09T05:49:23.773Z,34.38
2022-12-09T05:51:52.024Z,37.55
2022-12-09T05:54:20.206Z,36.30
2022-12-09T05:56:48.950Z,33.58
2022-12-09T05:59:16.985Z,36.13
2022-12-09T06:01:45.123Z,32.92
2022-12-09T06:04:13.116Z,30.98
2022-12-09T06:06:42.612Z,34.05
2022-12-09T06:09:12.174Z,36.72
2022-12-09T06:11:41.227Z,33.63
2022-12-09T06:14:10.162Z,36.28
2022-12-09T06:16:39.099Z,34.00
2022-12-09T06:19:07.654Z,30.98
2022-12-09T06:21:35.857Z,32.50
2022-12-09T06:24:06.292Z,31.40
2022-12-09T06:26:34.416Z,29.55
2022-12-09T06:29:02.510Z,34.83
2022-12-09T06:31:31.033Z,26.80
2022-12-09T06:33:59.979Z,33.65
2022-12-09T06:36:30.305Z,33.60
2022-12-09T06:39:04.544Z,32.97
2022-12-09T06:41:37.300Z,33.35
2022-12-09T06:44:05.513Z,30.67
2022-12-09T06:46:33.777Z,29.60
2022-12-09T06:49:01.786Z,34.17
2022-12-09T06:51:30.068Z,33.55
2022-12-09T06:53:58.105Z,31.65
2022-12-09T06:56:26.236Z,29.33
2022-12-09T06:58:55.459Z,31.05
2022-12-09T07:01:25.919Z,28.42
2022-12-09T07:03:57.147Z,27.60
2022-12-09T07:06:29.804Z,35.28
2022-12-09T07:08:59.958Z,32.75
2022-12-09T07:11:28.272Z,32.22
2022-12-09T07:13:57.757Z,34.15
2022-12-09T07:16:26.671Z,29.65
2022-12-09T07:18:54.775Z,34.58
2022-12-09T07:21:24.819Z,36.72
2022-12-09T07:23:53.977Z,34.05
2022-12-09T07:26:22.832Z,38.78
2022-12-09T07:28:51.314Z,34.90
2022-12-09T07:31:22.667Z,38.08
2022-12-09T07:33:51.688Z,35.22
2022-12-09T07:36:21.527Z,35.83
2022-12-09T07:38:50.327Z,38.60
2022-12-09T07:41:19.398Z,33.65
2022-12-09T07:43:48.192Z,35.00
2022-12-09T07:46:17.590Z,35.33
2022-12-09T07:48:48.124Z,36.47
2022-12-09T07:51:17.139Z,36.88
2022-12-09T07:53:45.314Z,36.97
2022-12-09T07:56:15.706Z,35.97
2022-12-09T07:58:45.251Z,34.85
2022-12-09T08:01:15.447Z,36.15
2022-12-09T08:03:43.695Z,36.67
2022-12-09T08:06:15.118Z,35.45
2022-12-09T08:08:44.012Z,40.80
2022-12-09T08:11:14.179Z,41.10
2022-12-09T08:13:43.149Z,38.60
2022-12-09T08:16:13.585Z,36.75
2022-12-09T08:18:43.106Z,36.72
2022-12-09T08:21:14.745Z,41.95
2022-12-09T08:23:42.722Z,41.33
2022-12-09T08:26:12.038Z,39.65
2022-12-09T08:28:40.356Z,36.20
2022-12-09T08:31:10.182Z,32.22
2022-12-09T08:33:38.991Z,38.05
2022-12-09T08:36:11.646Z,33.13
2022-12-09T08:38:41.367Z,36.83
2022-12-09T08:41:11.229Z,39.38
2022-12-09T08:43:39.526Z,38.05
2022-12-09T08:46:07.980Z,38.40
2022-12-09T08:48:37.843Z,36.10
2022-12-09T08:51:06.533Z,38.10
2022-12-09T08:53:34.452Z,33.03
2022-12-09T08:56:11.749Z,32.42
2022-12-09T08:58:40.311Z,32.95
2022-12-09T09:01:08.984Z,36.03
2022-12-09T09:03:37.397Z,32.88
2022-12-09T09:06:10.737Z,32.95
2022-12-09T09:08:39.570Z,40.22
2022-12-09T09:11:11.527Z,32.25
2022-12-09T09:13:40.357Z,28.65
2022-12-09T09:16:11.220Z,32.35
2022-12-09T09:18:39.497Z,34.65
2022-12-09T09:21:08.336Z,30.25
2022-12-09T09:23:36.704Z,31.20
2022-12-09T09:26:04.908Z,33.88
2022-12-09T09:28:34.927Z,29.42
2022-12-09T09:31:05.399Z,29.45
2022-12-09T09:33:33.435Z,25.50
2022-12-09T09:36:09.675Z,30.50
2022-12-09T09:38:38.715Z,30.98
2022-12-09T09:41:16.629Z,26.95
2022-12-09T09:43:46.464Z,26.50
2022-12-09T09:46:19.895Z,28.02
2022-12-09T09:48:48.860Z,28.60
2022-12-09T09:51:19.885Z,27.50
2022-12-09T09:53:53.281Z,28.42
2022-12-09T09:56:29.279Z,31.58
2022-12-09T09:59:11.344Z,33.38
2022-12-09T10:01:39.613Z,28.05
2022-12-09T10:04:15.605Z,29.08
2022-12-09T10:06:49.899Z,27.63
2022-12-09T10:09:23.174Z,27.63
2022-12-09T10:12:02.019Z,30.10
2022-12-09T10:14:42.807Z,30.70
2022-12-09T10:17:24.132Z,29.35
2022-12-09T10:19:56.157Z,28.83
2022-12-09T10:22:28.060Z,26.13
2022-12-09T10:24:58.405Z,30.88
2022-12-09T10:27:31.520Z,28.45
2022-12-09T10:30:03.676Z,28.73
2022-12-09T10:32:33.775Z,26.77
2022-12-09T10:35:13.294Z,29.20
2022-12-09T10:37:41.625Z,28.13
2022-12-09T10:40:21.974Z,27.48
2022-12-09T10:43:09.626Z,30.90
2022-12-09T10:46:16.948Z,26.75
2022-12-09T10:48:38.670Z,29.23
2022-12-09T10:51:14.047Z,27.08
2022-12-09T10:53:48.700Z,27.25
2022-12-09T10:56:21.933Z,30.77
2022-12-09T10:58:50.195Z,26.50
2022-12-09T11:01:19.539Z,30.02
2022-12-09T11:03:53.645Z,28.55
2022-12-09T11:06:27.282Z,26.05
2022-12-09T11:08:58.225Z,28.40
2022-12-09T11:11:45.366Z,26.02
2022-12-09T11:14:23.225Z,29.92
2022-12-09T11:16:54.660Z,28.17
2022-12-09T11:19:34.177Z,27.70
2022-12-09T11:22:36.454Z,22.42
2022-12-09T11:25:20.096Z,29.35
2022-12-09T11:27:52.273Z,27.55
2022-12-09T11:30:22.631Z,23.50
2022-12-09T11:33:01.204Z,24.83
2022-12-09T11:35:37.409Z,24.48
2022-12-09T11:38:17.025Z,23.88
2022-12-09T11:40:45.369Z,27.50
2022-12-09T11:43:13.310Z,23.17
2022-12-09T11:45:41.605Z,26.17
2022-12-09T11:48:35.099Z,21.25
2022-12-09T11:51:06.947Z,25.27
2022-12-09T11:53:40.694Z,21.70
2022-12-09T11:56:17.039Z,23.45
2022-12-09T11:58:51.227Z,23.67
2022-12-09T12:01:24.585Z,21.45
2022-12-09T12:03:56.787Z,23.92
2022-12-09T12:06:26.838Z,23.00
2022-12-09T12:08:59.018Z,23.50
2022-12-09T12:11:35.602Z,21.13
2022-12-09T12:14:11.519Z,26.08
2022-12-09T12:16:48.973Z,23.95
2022-12-09T12:19:23.323Z,22.30
2022-12-09T12:22:09.485Z,23.77
2022-12-09T12:24:55.676Z,22.45
2022-12-09T12:27:39.038Z,22.95
2022-12-09T12:30:11.041Z,23.20
2022-12-09T12:33:11.874Z,23.33
2022-12-09T12:35:56.832Z,20.10
2022-12-09T12:38:40.819Z,21.67
2022-12-09T12:41:15.018Z,23.35
2022-12-09T12:44:26.952Z,20.15
2022-12-09T12:47:03.198Z,20.65
2022-12-09T12:49:43.729Z,22.63
2022-12-09T12:55:27.162Z,21.15
2022-12-09T12:58:06.041Z,25.52
2022-12-09T13:00:43.188Z,25.70
2022-12-09T13:03:22.958Z,21.65
2022-12-09T13:05:53.562Z,22.35
2022-12-09T13:08:27.319Z,39.03
2022-12-09T13:10:58.159Z,24.63
2022-12-09T13:13:30.320Z,21.52
2022-12-09T13:16:03.674Z,27.83
2022-12-09T13:18:35.932Z,25.60
2022-12-09T13:21:05.848Z,23.10
2022-12-09T13:23:50.532Z,30.58
2022-12-09T13:26:27.978Z,28.63
2022-12-09T13:29:02.687Z,22.10
2022-12-09T13:31:32.944Z,24.65
2022-12-09T13:34:16.566Z,26.23
2022-12-09T13:36:46.578Z,21.08
2022-12-09T13:39:53.914Z,23.88
2022-12-09T13:42:54.186Z,22.98
2022-12-09T13:45:27.869Z,22.58
2022-12-09T13:47:56.454Z,21.35
2022-12-09T13:50:27.328Z,20.05
2022-12-09T13:52:57.787Z,23.05
2022-12-09T13:55:38.176Z,19.63
2022-12-09T13:58:55.098Z,24.38
2022-12-09T14:01:27.465Z,33.05
2022-12-09T14:04:08.092Z,24.75
2022-12-09T14:06:41.475Z,21.10
2022-12-09T14:09:24.936Z,22.77
2022-12-09T14:11:54.899Z,20.85
2022-12-09T14:14:48.773Z,21.38
2022-12-09T14:17:34.181Z,22.23
2022-12-09T14:20:05.542Z,20.70
2022-12-09T14:22:35.053Z,20.35
2022-12-09T14:25:36.127Z,20.15
2022-12-09T14:28:37.679Z,22.77
2022-12-09T14:31:08.942Z,26.42
2022-12-09T14:33:39.101Z,23.58
2022-12-09T14:36:21.187Z,21.05
2022-12-09T14:39:25.368Z,20.48
2022-12-09T14:41:50.826Z,19.90
2022-12-09T14:44:30.189Z,20.13
2022-12-09T14:47:15.221Z,22.15
2022-12-09T14:49:49.222Z,20.27
2022-12-09T14:52:23.955Z,18.70
2022-12-09T14:54:54.827Z,23.60
2022-12-09T14:57:25.743Z,20.75
2022-12-09T14:59:56.801Z,21.83
2022-12-09T15:02:26.725Z,22.25
2022-12-09T15:04:57.081Z,20.15
2022-12-09T15:07:26.715Z,21.17
2022-12-09T15:09:57.395Z,21.30
2022-12-09T15:12:30.439Z,22.15
2022-12-09T15:15:04.536Z,20.38
2022-12-09T15:17:37.716Z,22.50
2022-12-09T15:20:06.783Z,21.60
2022-12-09T15:22:35.703Z,19.83
2022-12-09T15:25:04.464Z,21.17
2022-12-09T15:27:32.479Z,19.75
2022-12-09T15:30:01.696Z,19.98
2022-12-09T15:32:31.590Z,20.98
2022-12-09T15:35:16.443Z,21.17
2022-12-09T15:37:45.060Z,21.52
2022-12-09T15:40:16.928Z,21.40
2022-12-09T15:42:47.647Z,24.75
2022-12-09T15:45:19.867Z,19.42
2022-12-09T15:47:53.277Z,17.30
2022-12-09T15:50:24.257Z,22.25
2022-12-09T15:52:54.188Z,37.13
2022-12-09T15:55:26.714Z,20.35
2022-12-09T15:57:57.137Z,21.23
2022-12-09T16:00:26.413Z,21.30
2022-12-09T16:02:54.688Z,20.38
2022-12-09T16:05:25.300Z,22.25
2022-12-09T16:07:55.598Z,24.40
2022-12-09T16:10:26.733Z,20.48
2022-12-09T16:13:09.774Z,19.58
2022-12-09T16:15:45.001Z,22.13
2022-12-09T16:18:18.397Z,24.35
2022-12-09T16:20:58.980Z,21.10
2022-12-09T16:23:27.977Z,28.23
2022-12-09T16:26:06.411Z,21.45
2022-12-09T16:28:35.273Z,22.40
2022-12-09T16:31:18.262Z,21.40
2022-12-09T16:33:49.580Z,22.20
2022-12-09T16:36:20.243Z,24.90
2022-12-09T16:39:13.769Z,22.08
2022-12-09T16:41:58.598Z,24.20
2022-12-09T16:44:30.797Z,27.05
2022-12-09T16:47:12.565Z,20.88
2022-12-09T16:49:42.494Z,24.85
2022-12-09T16:52:13.743Z,25.00
2022-12-09T16:54:41.989Z,25.92
2022-12-09T16:57:13.275Z,22.40
2022-12-09T16:59:41.351Z,23.98
2022-12-09T17:02:16.755Z,23.48
2022-12-09T17:04:44.578Z,23.50
2022-12-09T17:07:12.335Z,25.60
2022-12-09T17:09:40.061Z,23.00
2022-12-09T17:12:08.234Z,26.15
2022-12-09T17:14:36.004Z,23.52
2022-12-09T17:17:03.854Z,23.85
2022-12-09T17:19:33.127Z,21.98
2022-12-09T17:22:00.887Z,29.35
2022-12-09T17:24:28.580Z,21.15
2022-12-09T17:26:56.242Z,23.50
2022-12-09T17:29:23.949Z,26.05
2022-12-09T17:31:52.303Z,27.05
2022-12-09T17:34:20.774Z,27.58
2022-12-09T17:36:49.870Z,23.30
2022-12-09T17:39:17.844Z,24.75
2022-12-09T17:41:45.514Z,22.48
2022-12-09T17:44:13.201Z,25.17
2022-12-09T17:46:40.873Z,23.88
2022-12-09T17:49:08.592Z,21.77
2022-12-09T17:51:36.740Z,26.30
2022-12-09T17:54:06.575Z,27.23
2022-12-09T17:56:34.840Z,26.13
2022-12-09T17:59:04.469Z,24.33
2022-12-09T18:01:34.064Z,27.38
2022-12-09T18:04:07.912Z,27.70
2022-12-09T18:06:37.666Z,24.92
2022-12-09T18:09:10.825Z,23.15
2022-12-09T18:11:38.832Z,25.35
2022-12-09T18:14:07.260Z,23.98
2022-12-09T18:16:34.996Z,23.33
2022-12-09T18:19:04.332Z,25.50
2022-12-09T18:21:32.325Z,25.20
2022-12-09T18:24:00.196Z,24.75
2022-12-09T18:26:32.943Z,24.38
2022-12-09T18:29:01.782Z,23.83
2022-12-09T18:31:29.713Z,22.55
2022-12-09T18:33:57.650Z,32.75
2022-12-09T18:36:27.571Z,23.65
2022-12-09T18:38:55.259Z,22.80
2022-12-09T18:41:25.121Z,26.20
2022-12-09T18:43:55.654Z,22.42
2022-12-09T18:46:26.917Z,26.70
2022-12-09T18:48:58.794Z,23.13
2022-12-09T18:51:27.452Z,22.77
2022-12-09T18:53:55.524Z,25.83
2022-12-09T18:56:23.227Z,25.55
2022-12-09T18:59:05.830Z,24.33
2022-12-09T19:01:39.229Z,22.40
2022-12-09T19:04:08.707Z,26.08
2022-12-09T19:06:38.303Z,23.65
2022-12-09T19:09:07.674Z,49.20
2022-12-09T19:11:37.501Z,24.73
2022-12-09T19:14:06.049Z,29.50
2022-12-09T19:16:35.954Z,25.92
2022-12-09T19:19:09.461Z,23.52
2022-12-09T19:21:38.136Z,25.60
2022-12-09T19:24:06.811Z,26.67
2022-12-09T19:26:36.357Z,24.83
2022-12-09T19:29:10.536Z,27.92
2022-12-09T19:31:41.932Z,24.38
2022-12-09T19:34:13.148Z,26.08
2022-12-09T19:36:41.181Z,24.52
2022-12-09T19:39:10.404Z,27.23
2022-12-09T19:41:40.372Z,23.15
2022-12-09T19:44:08.700Z,26.83
2022-12-09T19:46:38.336Z,23.30
2022-12-09T19:49:07.946Z,25.40
2022-12-09T19:51:35.658Z,26.00
2022-12-09T19:54:03.426Z,25.05
2022-12-09T19:56:31.443Z,28.08
2022-12-09T19:59:00.604Z,27.70
2022-12-09T20:01:30.321Z,27.23
2022-12-09T20:04:08.874Z,24.45
2022-12-09T20:06:43.837Z,27.60
2022-12-09T20:09:13.881Z,26.75
2022-12-09T20:11:42.738Z,26.50
2022-12-09T20:14:13.146Z,27.48
2022-12-09T20:16:41.273Z,27.27
2022-12-09T20:19:09.500Z,22.98
2022-12-09T20:21:37.686Z,23.05
2022-12-09T20:24:07.813Z,24.60
2022-12-09T20:26:38.060Z,22.15
2022-12-09T20:29:08.408Z,26.60
2022-12-09T20:31:37.585Z,27.75
2022-12-09T20:34:07.910Z,24.27
2022-12-09T20:36:37.875Z,25.00
2022-12-09T20:39:11.242Z,26.08
2022-12-09T20:41:39.232Z,27.48
2022-12-09T20:44:07.054Z,25.88
2022-12-09T20:46:35.560Z,24.35
2022-12-09T20:49:03.538Z,23.85
2022-12-09T20:51:33.866Z,24.45
2022-12-09T20:54:02.169Z,23.83
2022-12-09T20:56:31.314Z,23.38
2022-12-09T20:58:59.356Z,26.92
2022-12-09T21:01:28.987Z,23.77
2022-12-09T21:03:58.296Z,25.98
2022-12-09T21:06:29.368Z,27.63
2022-12-09T21:08:57.472Z,23.02
2022-12-09T21:11:26.434Z,24.83
2022-12-09T21:13:58.670Z,25.35
2022-12-09T21:16:28.909Z,22.90
2022-12-09T21:18:58.148Z,25.90
2022-12-09T21:21:27.556Z,26.27
2022-12-09T21:23:55.309Z,26.85
2022-12-09T21:26:24.630Z,25.88
2022-12-09T21:28:53.074Z,27.60
2022-12-09T21:31:24.583Z,30.25
2022-12-09T21:33:54.330Z,26.77
2022-12-09T21:36:24.854Z,27.45
2022-12-09T21:38:53.624Z,28.60
2022-12-09T21:41:23.530Z,25.52
2022-12-09T21:43:52.213Z,26.88
2022-12-09T21:46:23.353Z,28.52
2022-12-09T21:48:54.242Z,24.23
2022-12-09T21:51:24.373Z,28.48
2022-12-09T21:53:52.163Z,29.30
2022-12-09T21:56:22.612Z,24.92
2022-12-09T21:58:52.550Z,27.40
2022-12-09T22:01:23.890Z,27.88
2022-12-09T22:03:51.586Z,26.27
2022-12-09T22:06:19.400Z,25.50
2022-12-09T22:08:47.265Z,27.58
2022-12-09T22:11:17.669Z,26.60
2022-12-09T22:13:45.890Z,26.35
2022-12-09T22:16:16.325Z,27.55
2022-12-09T22:18:45.560Z,29.38
2022-12-09T22:21:24.646Z,23.73
2022-12-09T22:23:54.248Z,27.60
2022-12-09T22:26:22.725Z,24.50
2022-12-09T22:28:50.784Z,26.80
2022-12-09T22:31:21.341Z,29.00
2022-12-09T22:33:51.659Z,28.23
2022-12-09T22:36:20.294Z,26.85
2022-12-09T22:38:48.775Z,26.50
2022-12-09T22:41:18.815Z,23.50
2022-12-09T22:43:48.132Z,27.25
2022-12-09T22:46:17.529Z,25.98
2022-12-09T22:48:45.611Z,25.83
2022-12-09T22:51:16.305Z,27.73
2022-12-09T22:53:44.972Z,26.35
2022-12-09T22:56:13.526Z,27.75
2022-12-09T22:58:41.533Z,25.73
2022-12-09T23:01:14.245Z,27.17
2022-12-09T23:03:42.429Z,26.27
2022-12-09T23:06:10.561Z,26.60
2022-12-09T23:08:41.845Z,29.25
2022-12-09T23:11:16.403Z,29.55
2022-12-09T23:13:44.517Z,30.65
2022-12-09T23:16:15.369Z,29.67
2022-12-09T23:18:43.634Z,32.58
2022-12-09T23:21:16.431Z,27.38
2022-12-09T23:23:45.594Z,32.50
2022-12-09T23:26:16.500Z,29.17
2022-12-09T23:28:45.929Z,34.03
2022-12-09T23:31:15.702Z,34.08
2022-12-09T23:33:45.400Z,33.67
2022-12-09T23:36:14.815Z,31.73
2022-12-09T23:38:43.316Z,35.30
2022-12-09T23:41:13.603Z,31.70
2022-12-09T23:43:42.003Z,31.13
2022-12-09T23:46:15.748Z,33.00
2022-12-09T23:48:44.135Z,33.08
2022-12-09T23:51:13.112Z,36.78
2022-12-09T23:53:41.625Z,32.30
2022-12-09T23:56:13.483Z,33.40
2022-12-09T23:58:42.068Z,32.97
